Time;durP1;ratioP1;P1;durP2;ratioP2;P2;SDS_P1;SDS_P2;PMS_P1;PMS_P2;Temp;Humidity;BMP_temperature;BMP_pressure;BME280_temperature;BME280_humidity;BME280_pressure;Samples;Min_cycle;Max_cycle;Signal;HPM_P1;HPM_P2
2022/05/01 00:01:33;;;;;;;;;;;;;;;;;;5075427;28;20135;-68
2022/05/01 00:03:59;;;;;;;35.95;22.98;;;;;;;;;;5074904;28;20069;-69
2022/05/01 00:06:25;;;;;;;34.13;23.80;;;;;;;;;;5074912;28;20044;-68
2022/05/01 00:08:51;;;;;;;34.60;24.15;;;;;;;;;;5073599;28;20052;-69
2022/05/01 00:11:18;;;;;;;37.08;24.13;;;;;;;;;;5075652;28;20048;-68
2022/05/01 00:13:45;;;;;;;36.75;24.50;;;;;;;;;;5074615;28;20139;-68
2022/05/01 00:16:11;;;;;;;38.05;24.05;;;;;;;;;;5074734;28;20133;-68
2022/05/01 00:18:37;;;;;;;36.63;24.58;;;;;;;;;;5074560;28;20043;-68
2022/05/01 00:21:04;;;;;;;39.00;25.33;;;;;;;;;;5074667;28;20051;-69
2022/05/01 00:23:30;;;;;;;36.97;25.25;;;;;;;;;;5074581;28;20489;-68
2022/05/01 00:25:56;;;;;;;35.60;24.10;;;;;;;;;;5074430;28;20044;-68
2022/05/01 00:28:22;;;;;;;34.35;24.75;;;;;;;;;;5075005;28;20048;-69
2022/05/01 00:30:48;;;;;;;36.15;24.10;;;;;;;;;;5074771;28;20044;-69
2022/05/01 00:38:43;;;;;;;34.78;24.58;;;;;;;;;;5074234;28;20071;-68
2022/05/01 00:41:11;;;;;;;35.50;25.90;;;;;;;;;;5073469;28;20141;-68
2022/05/01 00:43:55;;;;;;;34.22;24.70;;;;;;;;;;5074763;28;20052;-68
2022/05/01 00:46:21;;;;;;;35.63;25.70;;;;;;;;;;5074386;28;20182;-69
2022/05/01 00:48:47;;;;;;;36.67;27.15;;;;;;;;;;5073978;28;20048;-69
2022/05/01 00:51:14;;;;;;;37.50;26.42;;;;;;;;;;5072890;28;20145;-68
2022/05/01 00:53:40;;;;;;;;;;;;;;;;;;5073188;28;20044;-69
2022/05/01 00:56:07;;;;;;;39.63;27.77;;;;;;;;;;5073895;28;19920;-69
2022/05/01 00:58:33;;;;;;;37.90;27.50;;;;;;;;;;5055472;28;20067;-68
2022/05/01 01:00:59;;;;;;;;;;;;;;;;;;5073535;28;20052;-69
2022/05/01 01:03:25;;;;;;;36.30;25.95;;;;;;;;;;5073947;28;20368;-68
2022/05/01 01:05:51;;;;;;;40.50;25.77;;;;;;;;;;5072689;28;20054;-68
2022/05/01 01:08:17;;;;;;;38.95;27.02;;;;;;;;;;5073482;28;20135;-69
2022/05/01 01:10:43;;;;;;;38.45;27.38;;;;;;;;;;5072813;28;20048;-69
2022/05/01 01:13:09;;;;;;;38.20;27.00;;;;;;;;;;5055993;28;20472;-69
2022/05/01 01:15:36;;;;;;;35.65;26.50;;;;;;;;;;5073005;28;20472;-68
2022/05/01 01:18:02;;;;;;;35.30;25.55;;;;;;;;;;5072327;28;20053;-69
2022/05/01 01:20:29;;;;;;;35.35;25.50;;;;;;;;;;5073636;28;20044;-68
2022/05/01 01:23:01;;;;;;;35.70;25.77;;;;;;;;;;5073539;28;20048;-68
2022/05/01 01:25:29;;;;;;;35.65;25.92;;;;;;;;;;5072822;28;20174;-68
2022/05/01 01:27:59;;;;;;;34.97;26.58;;;;;;;;;;5073548;28;20056;-68
2022/05/01 01:33:10;;;;;;;36.55;26.10;;;;;;;;;;5074178;28;20185;-69
2022/05/01 01:35:37;;;;;;;36.45;25.70;;;;;;;;;;5073512;28;20048;-67
2022/05/01 01:38:03;;;;;;;36.47;25.77;;;;;;;;;;5072899;28;20521;-68
2022/05/01 01:40:31;;;;;;;38.30;27.05;;;;;;;;;;5073333;28;20044;-67
2022/05/01 01:42:58;;;;;;;36.22;26.20;;;;;;;;;;5073279;28;20576;-67
2022/05/01 01:45:28;;;;;;;36.58;27.08;;;;;;;;;;5073274;28;20045;-68
2022/05/01 01:47:57;;;;;;;38.58;26.83;;;;;;;;;;5073273;28;20037;-67
2022/05/01 01:50:24;;;;;;;35.75;25.63;;;;;;;;;;5073194;28;20485;-67
2022/05/01 01:52:50;;;;;;;34.97;25.42;;;;;;;;;;5072140;28;20135;-67
2022/05/01 01:55:18;;;;;;;35.83;24.85;;;;;;;;;;5073204;28;20048;-67
2022/05/01 01:57:45;;;;;;;33.35;24.50;;;;;;;;;;5073202;28;20052;-67
2022/05/01 02:00:12;;;;;;;35.08;25.75;;;;;;;;;;5073320;28;20092;-67
2022/05/01 02:02:38;;;;;;;36.00;25.08;;;;;;;;;;5072148;28;20480;-67
2022/05/01 02:05:05;;;;;;;;;;;;;;;;;;5073380;28;20044;-67
2022/05/01 02:07:31;;;;;;;32.47;25.55;;;;;;;;;;5073721;28;19978;-67
2022/05/01 02:09:57;;;;;;;33.65;24.98;;;;;;;;;;5074493;28;20048;-67
2022/05/01 02:12:24;;;;;;;37.25;26.23;;;;;;;;;;5076018;28;20057;-67
2022/05/01 02:14:50;;;;;;;36.80;26.30;;;;;;;;;;5076866;28;20048;-67
2022/05/01 02:17:16;;;;;;;33.40;25.70;;;;;;;;;;5076863;28;20045;-67
2022/05/01 02:19:42;;;;;;;34.17;24.52;;;;;;;;;;5076622;28;20412;-67
2022/05/01 02:22:08;;;;;;;;;;;;;;;;;;5060379;28;20048;-67
2022/05/01 02:24:34;;;;;;;33.42;24.52;;;;;;;;;;5077378;28;20268;-67
2022/05/01 02:27:01;;;;;;;36.85;25.77;;;;;;;;;;5075883;28;20510;-67
2022/05/01 02:29:28;;;;;;;35.97;24.70;;;;;;;;;;5077236;28;20055;-67
2022/05/01 02:31:54;;;;;;;;;;;;;;;;;;5076994;28;20052;-67
2022/05/01 02:34:22;;;;;;;36.95;24.35;;;;;;;;;;5076655;28;19921;-67
2022/05/01 02:36:48;;;;;;;34.47;24.98;;;;;;;;;;5058984;28;20098;-67
2022/05/01 02:39:14;;;;;;;33.38;23.80;;;;;;;;;;5077041;28;20044;-67
2022/05/01 02:41:40;;;;;;;36.10;24.95;;;;;;;;;;5075517;28;20135;-67
2022/05/01 02:44:06;;;;;;;35.10;24.73;;;;;;;;;;5075277;28;20068;-67
2022/05/01 02:46:33;;;;;;;34.78;25.30;;;;;;;;;;5075480;28;20048;-67
2022/05/01 02:48:59;;;;;;;33.15;23.90;;;;;;;;;;5076398;28;20087;-67
2022/05/01 02:51:25;;;;;;;35.30;25.23;;;;;;;;;;5075909;28;20565;-67
2022/05/01 02:53:51;;;;;;;33.40;24.05;;;;;;;;;;5076717;28;20434;-67
2022/05/01 02:56:17;;;;;;;35.08;25.15;;;;;;;;;;5075211;28;20063;-67
2022/05/01 02:58:43;;;;;;;33.90;23.98;;;;;;;;;;5076868;28;20048;-67
2022/05/01 03:01:09;;;;;;;33.97;24.70;;;;;;;;;;5076638;28;20076;-67
2022/05/01 03:03:36;;;;;;;33.22;24.27;;;;;;;;;;5075370;28;20052;-67
2022/05/01 03:06:02;;;;;;;34.15;23.58;;;;;;;;;;5075920;28;20515;-67
2022/05/01 03:08:28;;;;;;;;;;;;;;;;;;5077010;28;20050;-67
2022/05/01 03:10:54;;;;;;;33.10;23.52;;;;;;;;;;5076566;28;19988;-67
2022/05/01 03:13:21;;;;;;;32.88;24.00;;;;;;;;;;5075932;28;20085;-67
2022/05/01 03:15:47;;;;;;;34.50;24.45;;;;;;;;;;5076016;28;20048;-67
2022/05/01 03:23:42;;;;;;;31.40;23.85;;;;;;;;;;5074831;28;20061;-68
2022/05/01 03:26:08;;;;;;;32.47;23.52;;;;;;;;;;5058276;28;20044;-67
2022/05/01 03:28:34;;;;;;;32.75;23.25;;;;;;;;;;5075686;28;20063;-67
2022/05/01 03:31:00;;;;;;;31.65;22.98;;;;;;;;;;5075829;28;20139;-67
2022/05/01 03:33:26;;;;;;;32.30;23.67;;;;;;;;;;5075572;28;20513;-67
2022/05/01 03:35:53;;;;;;;31.90;22.27;;;;;;;;;;5075532;28;20093;-67
2022/05/01 03:38:20;;;;;;;31.23;23.25;;;;;;;;;;5075893;28;20098;-67
2022/05/01 03:40:47;;;;;;;33.38;24.10;;;;;;;;;;5074579;28;20468;-67
2022/05/01 03:43:19;;;;;;;30.45;23.52;;;;;;;;;;5075384;28;20052;-71
2022/05/01 03:45:45;;;;;;;32.67;23.40;;;;;;;;;;5075850;28;20071;-67
2022/05/01 03:48:11;;;;;;;31.77;24.10;;;;;;;;;;5074694;28;20052;-67
2022/05/01 03:50:38;;;;;;;31.25;22.85;;;;;;;;;;5075182;28;20052;-67
2022/05/01 03:53:05;;;;;;;31.83;22.23;;;;;;;;;;5074884;28;20101;-66
2022/05/01 03:55:33;;;;;;;32.03;24.48;;;;;;;;;;5074600;28;20045;-67
2022/05/01 03:58:00;;;;;;;35.17;23.92;;;;;;;;;;5074169;28;20060;-67
2022/05/01 04:00:27;;;;;;;33.20;25.40;;;;;;;;;;5074402;28;20094;-67
2022/05/01 04:02:54;;;;;;;32.40;23.75;;;;;;;;;;5073816;28;20469;-67
2022/05/01 04:05:20;;;;;;;32.90;23.73;;;;;;;;;;5073405;28;20107;-67
2022/05/01 04:07:46;;;;;;;34.45;24.60;;;;;;;;;;5073448;28;20122;-67
2022/05/01 04:10:12;;;;;;;33.55;23.17;;;;;;;;;;5072769;28;20519;-67
2022/05/01 04:12:39;;;;;;;30.92;23.70;;;;;;;;;;5072872;28;20139;-67
2022/05/01 04:15:09;;;;;;;32.22;21.63;;;;;;;;;;5055415;28;20052;-67
2022/05/01 04:17:41;;;;;;;32.40;21.80;;;;;;;;;;5073196;28;20461;-67
2022/05/01 04:20:08;;;;;;;32.72;22.52;;;;;;;;;;5072149;28;20056;-67
2022/05/01 04:22:44;;;;;;;31.42;23.15;;;;;;;;;;5072825;28;20052;-67
2022/05/01 04:25:16;;;;;;;29.10;21.60;;;;;;;;;;5072778;28;20059;-67
2022/05/01 04:27:46;;;;;;;30.23;21.80;;;;;;;;;;5071218;28;20287;-67
2022/05/01 04:30:13;;;;;;;29.75;22.05;;;;;;;;;;5072504;28;20485;-67
2022/05/01 04:32:52;;;;;;;29.67;22.27;;;;;;;;;;5071886;28;20064;-67
2022/05/01 04:35:21;;;;;;;28.38;20.60;;;;;;;;;;5073241;28;20056;-67
2022/05/01 04:37:48;;;;;;;29.73;20.77;;;;;;;;;;5072229;28;20149;-67
2022/05/01 04:40:14;;;;;;;30.23;21.17;;;;;;;;;;5072416;28;20055;-68
2022/05/01 04:42:41;;;;;;;;;;;;;;;;;;5071855;28;20604;-67
2022/05/01 04:45:07;;;;;;;28.17;19.45;;;;;;;;;;5071316;28;20367;-67
2022/05/01 04:47:34;;;;;;;26.50;19.92;;;;;;;;;;5072519;28;20170;-67
2022/05/01 04:50:00;;;;;;;27.27;19.48;;;;;;;;;;5070987;28;20127;-67
2022/05/01 04:52:26;;;;;;;;;;;;;;;;;;5072559;28;20041;-67
2022/05/01 04:54:52;;;;;;;27.48;20.13;;;;;;;;;;5071247;28;20299;-67
2022/05/01 04:57:18;;;;;;;30.27;20.30;;;;;;;;;;5070991;28;20056;-67
2022/05/01 04:59:44;;;;;;;27.42;21.33;;;;;;;;;;5071925;28;20189;-67
2022/05/01 05:02:10;;;;;;;27.13;20.27;;;;;;;;;;5070854;28;20186;-67
2022/05/01 05:04:36;;;;;;;27.13;20.70;;;;;;;;;;5071925;28;20047;-67
2022/05/01 05:07:02;;;;;;;28.95;20.35;;;;;;;;;;5071846;28;20044;-67
2022/05/01 05:12:13;;;;;;;29.10;20.52;;;;;;;;;;5071757;28;20594;-67
2022/05/01 05:14:39;;;;;;;28.80;21.17;;;;;;;;;;5070509;28;20052;-67
2022/05/01 05:17:06;;;;;;;28.00;22.15;;;;;;;;;;5072155;28;20044;-66
2022/05/01 05:19:34;;;;;;;27.77;21.02;;;;;;;;;;5072139;28;20101;-68
2022/05/01 05:22:00;;;;;;;28.65;21.30;;;;;;;;;;5054472;28;20052;-67
2022/05/01 05:24:26;;;;;;;31.67;21.63;;;;;;;;;;5072251;28;20067;-68
2022/05/01 05:26:52;;;;;;;30.45;21.75;;;;;;;;;;5070429;28;20088;-67
2022/05/01 05:29:18;;;;;;;32.17;21.63;;;;;;;;;;5071614;28;20048;-67
2022/05/01 05:31:44;;;;;;;29.63;21.55;;;;;;;;;;5071602;28;20064;-67
2022/05/01 05:34:10;;;;;;;34.40;24.58;;;;;;;;;;5071699;28;20161;-67
2022/05/01 05:36:36;;;;;;;27.90;21.52;;;;;;;;;;5070405;28;20048;-67
2022/05/01 05:39:03;;;;;;;31.98;22.65;;;;;;;;;;5070245;28;20057;-68
2022/05/01 05:41:28;;;;;;;;;;;;;;;;;;5071286;28;20075;-68
2022/05/01 05:43:54;;;;;;;28.00;20.92;;;;;;;;;;5070910;28;19921;-70
2022/05/01 05:46:21;;;;;;;26.30;20.20;;;;;;;;;;5071353;28;20049;-67
2022/05/01 05:48:47;;;;;;;29.63;20.88;;;;;;;;;;5070060;28;20136;-67
2022/05/01 05:51:13;;;;;;;27.02;19.52;;;;;;;;;;5072108;28;20048;-67
2022/05/01 05:53:39;;;;;;;26.92;19.92;;;;;;;;;;5071207;28;20049;-67
2022/05/01 05:56:05;;;;;;;26.75;18.67;;;;;;;;;;5071464;28;20468;-68
2022/05/01 05:58:31;;;;;;;28.30;19.92;;;;;;;;;;5071149;28;20067;-68
2022/05/01 06:00:57;;;;;;;26.58;19.00;;;;;;;;;;5071174;28;20044;-67
2022/05/01 06:03:23;;;;;;;25.35;18.02;;;;;;;;;;5071277;28;20075;-67
2022/05/01 06:05:49;;;;;;;26.58;17.65;;;;;;;;;;5071567;28;20153;-67
2022/05/01 06:08:16;;;;;;;28.42;18.35;;;;;;;;;;5071188;28;20106;-67
2022/05/01 06:10:42;;;;;;;24.35;17.77;;;;;;;;;;5069486;28;20097;-67
2022/05/01 06:13:08;;;;;;;;;;;;;;;;;;5071537;28;20068;-68
2022/05/01 06:15:34;;;;;;;25.67;16.75;;;;;;;;;;5070752;28;20259;-68
2022/05/01 06:18:00;;;;;;;23.25;16.67;;;;;;;;;;5071049;28;20483;-67
2022/05/01 06:20:26;;;;;;;23.52;17.00;;;;;;;;;;5071547;28;20051;-67
2022/05/01 06:22:52;;;;;;;24.40;15.90;;;;;;;;;;5071291;28;20083;-67
2022/05/01 06:25:19;;;;;;;24.08;15.60;;;;;;;;;;5070503;28;20052;-67
2022/05/01 06:27:45;;;;;;;21.38;15.20;;;;;;;;;;5070866;28;20134;-68
2022/05/01 06:30:11;;;;;;;24.17;15.15;;;;;;;;;;5070919;28;20510;-67
2022/05/01 06:32:41;;;;;;;23.20;14.63;;;;;;;;;;5071012;28;20044;-67
2022/05/01 06:35:08;;;;;;;19.35;13.73;;;;;;;;;;5069951;28;20425;-69
2022/05/01 06:37:35;;;;;;;19.52;13.20;;;;;;;;;;5070767;28;20123;-69
2022/05/01 06:40:03;;;;;;;21.20;14.40;;;;;;;;;;5071169;28;20048;-68
2022/05/01 06:42:29;;;;;;;20.60;14.13;;;;;;;;;;5070699;28;20520;-68
2022/05/01 06:44:55;;;;;;;21.17;12.60;;;;;;;;;;5070914;28;20048;-68
2022/05/01 06:47:22;;;;;;;19.90;13.20;;;;;;;;;;5069609;28;20051;-68
2022/05/01 06:49:48;;;;;;;18.08;13.30;;;;;;;;;;5070748;28;20052;-68
2022/05/01 06:52:14;;;;;;;21.55;12.25;;;;;;;;;;5069775;28;20048;-68
2022/05/01 06:54:40;;;;;;;19.58;12.15;;;;;;;;;;5070662;28;20139;-68
2022/05/01 06:57:06;;;;;;;17.67;11.98;;;;;;;;;;5056601;28;20044;-67
2022/05/01 06:59:32;;;;;;;18.92;11.60;;;;;;;;;;5074803;28;20496;-67
2022/05/01 07:01:58;;;;;;;18.92;11.43;;;;;;;;;;5074709;28;20075;-68
2022/05/01 07:04:24;;;;;;;19.58;12.23;;;;;;;;;;5074988;28;20127;-68
2022/05/01 07:06:50;;;;;;;20.60;12.88;;;;;;;;;;5072928;28;20105;-68
2022/05/01 07:09:16;;;;;;;17.65;11.73;;;;;;;;;;5073113;28;20053;-68
2022/05/01 07:11:42;;;;;;;18.63;9.75;;;;;;;;;;5072871;28;20044;-68
2022/05/01 07:14:08;;;;;;;19.15;10.25;;;;;;;;;;5074093;28;20045;-66
2022/05/01 07:16:34;;;;;;;22.65;11.45;;;;;;;;;;5074750;28;20126;-68
2022/05/01 07:19:00;;;;;;;16.30;9.30;;;;;;;;;;5072579;28;20044;-68
2022/05/01 07:21:26;;;;;;;16.17;9.75;;;;;;;;;;5073967;28;20056;-67
2022/05/01 07:23:52;;;;;;;15.52;9.98;;;;;;;;;;5072877;28;20049;-68
2022/05/01 07:26:18;;;;;;;17.15;10.50;;;;;;;;;;5074374;28;20097;-67
2022/05/01 07:28:44;;;;;;;17.63;10.38;;;;;;;;;;5074195;28;20044;-68
2022/05/01 07:31:10;;;;;;;18.23;10.60;;;;;;;;;;5073828;28;20135;-68
2022/05/01 07:33:37;;;;;;;14.68;8.18;;;;;;;;;;5073128;28;20060;-67
2022/05/01 07:36:03;;;;;;;18.65;9.50;;;;;;;;;;5073602;28;20494;-67
2022/05/01 07:38:29;;;;;;;14.95;8.73;;;;;;;;;;5074040;28;20044;-67
2022/05/01 07:40:55;;;;;;;15.40;9.18;;;;;;;;;;5073487;28;20131;-67
2022/05/01 07:43:21;;;;;;;18.38;10.70;;;;;;;;;;5073407;28;20056;-68
2022/05/01 07:45:47;;;;;;;16.25;8.40;;;;;;;;;;5073302;28;20052;-66
2022/05/01 07:48:13;;;;;;;16.20;8.77;;;;;;;;;;5073168;28;20511;-68
2022/05/01 07:50:39;;;;;;;19.17;9.27;;;;;;;;;;5073044;28;20071;-66
2022/05/01 07:53:06;;;;;;;15.15;9.45;;;;;;;;;;5073202;28;20477;-67
2022/05/01 07:55:32;;;;;;;15.73;9.18;;;;;;;;;;5073117;28;20044;-66
2022/05/01 07:57:58;;;;;;;16.67;8.85;;;;;;;;;;5072882;28;20108;-67
2022/05/01 08:00:24;;;;;;;17.48;9.43;;;;;;;;;;5073026;28;20049;-67
2022/05/01 08:05:35;;;;;;;15.20;8.30;;;;;;;;;;5073853;28;20048;-67
2022/05/01 08:08:01;;;;;;;14.25;8.20;;;;;;;;;;5054212;28;20059;-67
2022/05/01 08:10:28;;;;;;;13.55;7.20;;;;;;;;;;5073169;28;20045;-68
2022/05/01 08:12:57;;;;;;;13.45;7.45;;;;;;;;;;5071570;28;20045;-69
2022/05/01 08:15:23;;;;;;;16.52;8.38;;;;;;;;;;5071814;28;20048;-71
2022/05/01 08:17:49;;;;;;;14.90;8.35;;;;;;;;;;5072308;28;20484;-69
2022/05/01 08:23:03;;;;;;;15.45;8.25;;;;;;;;;;5071540;28;20052;-69
2022/05/01 08:25:29;;;;;;;12.73;7.70;;;;;;;;;;5072578;28;20060;-68
2022/05/01 08:27:55;;;;;;;16.08;8.35;;;;;;;;;;5072579;28;20268;-68
2022/05/01 08:30:21;;;;;;;17.35;8.00;;;;;;;;;;5072579;28;20056;-69
2022/05/01 08:32:47;;;;;;;16.10;7.38;;;;;;;;;;5071247;28;20048;-69
2022/05/01 08:35:14;;;;;;;13.05;7.13;;;;;;;;;;5072482;28;20084;-69
2022/05/01 08:37:40;;;;;;;;;;;;;;;;;;5072774;28;20082;-68
2022/05/01 08:40:07;;;;;;;13.52;7.30;;;;;;;;;;5072336;28;19974;-68
2022/05/01 08:42:36;;;;;;;13.13;7.20;;;;;;;;;;5072503;28;20147;-67
2022/05/01 08:45:03;;;;;;;17.52;7.78;;;;;;;;;;5072050;28;20044;-68
2022/05/01 08:47:50;;;;;;;15.50;7.75;;;;;;;;;;5072014;28;20047;-69
2022/05/01 08:50:18;;;;;;;14.07;7.25;;;;;;;;;;5072398;28;20048;-67
2022/05/01 08:52:44;;;;;;;14.18;7.68;;;;;;;;;;5071696;28;20508;-67
2022/05/01 08:55:12;;;;;;;14.05;7.30;;;;;;;;;;5071917;28;20083;-67
2022/05/01 08:57:39;;;;;;;15.43;7.30;;;;;;;;;;5071638;28;20063;-67
2022/05/01 09:00:07;;;;;;;13.57;7.03;;;;;;;;;;5072232;28;20091;-67
2022/05/01 09:02:34;;;;;;;13.68;6.93;;;;;;;;;;5070618;28;20041;-67
2022/05/01 09:05:00;;;;;;;14.07;7.55;;;;;;;;;;5071785;28;20044;-68
2022/05/01 09:07:27;;;;;;;13.10;7.05;;;;;;;;;;5070804;28;20055;-68
2022/05/01 09:09:53;;;;;;;15.43;7.15;;;;;;;;;;5070660;28;20112;-67
2022/05/01 09:15:05;;;;;;;15.07;8.25;;;;;;;;;;5071685;28;20052;-68
2022/05/01 09:17:31;;;;;;;13.95;8.00;;;;;;;;;;5071232;28;20044;-67
2022/05/01 09:20:09;;;;;;;14.15;6.72;;;;;;;;;;5071441;28;20133;-68
2022/05/01 09:22:54;;;;;;;14.77;7.47;;;;;;;;;;5071352;28;20484;-67
2022/05/01 09:25:22;;;;;;;13.88;6.85;;;;;;;;;;5072145;28;20071;-68
2022/05/01 09:27:59;;;;;;;14.05;6.80;;;;;;;;;;5071279;28;20060;-67
2022/05/01 09:30:29;;;;;;;;;;;;;;;;;;5070814;28;20429;-67
2022/05/01 09:32:57;;;;;;;13.63;7.68;;;;;;;;;;5071410;28;19932;-68
2022/05/01 09:35:23;;;;;;;11.88;6.95;;;;;;;;;;5071431;28;20052;-67
2022/05/01 09:37:50;;;;;;;14.70;6.88;;;;;;;;;;5071302;28;20044;-68
2022/05/01 09:40:32;;;;;;;13.18;7.15;;;;;;;;;;5071879;28;20110;-67
2022/05/01 09:42:58;;;;;;;12.73;7.32;;;;;;;;;;5070790;28;20057;-68
2022/05/01 09:45:31;;;;;;;15.43;7.72;;;;;;;;;;5071668;28;20392;-67
2022/05/01 09:47:57;;;;;;;12.38;6.65;;;;;;;;;;5072018;28;20119;-68
2022/05/01 09:50:44;;;;;;;12.93;6.80;;;;;;;;;;5071527;28;20044;-68
2022/05/01 09:53:11;;;;;;;;;;;;;;;;;;5072246;28;20044;-67
2022/05/01 09:55:37;;;;;;;13.60;7.20;;;;;;;;;;5070322;28;19920;-67
2022/05/01 09:58:06;;;;;;;13.77;7.10;;;;;;;;;;5069531;28;20302;-67
2022/05/01 10:00:35;;;;;;;14.27;7.32;;;;;;;;;;5071307;28;20063;-67
2022/05/01 10:03:19;;;;;;;13.73;7.65;;;;;;;;;;5071433;28;20167;-66
2022/05/01 10:05:46;;;;;;;17.08;8.52;;;;;;;;;;5071990;28;20044;-67
2022/05/01 10:08:13;;;;;;;17.20;8.00;;;;;;;;;;5070211;28;20484;-67
2022/05/01 10:10:41;;;;;;;14.77;7.80;;;;;;;;;;5071238;28;20045;-68
2022/05/01 10:13:10;;;;;;;13.43;7.18;;;;;;;;;;5070069;28;20045;-68
2022/05/01 10:15:36;;;;;;;15.02;7.30;;;;;;;;;;5071409;28;20052;-68
2022/05/01 10:18:03;;;;;;;13.90;7.53;;;;;;;;;;5070891;28;20045;-68
2022/05/01 10:20:29;;;;;;;13.35;7.25;;;;;;;;;;5070761;28;20045;-68
2022/05/01 10:22:55;;;;;;;12.52;7.35;;;;;;;;;;5070973;28;20411;-67
2022/05/01 10:25:22;;;;;;;12.98;6.78;;;;;;;;;;5071399;28;20071;-68
2022/05/01 10:27:56;;;;;;;15.05;7.70;;;;;;;;;;5070969;28;20037;-67
2022/05/01 10:33:19;;;;;;;12.50;6.88;;;;;;;;;;5075434;28;20392;-67
2022/05/01 10:35:53;;;;;;;14.70;7.18;;;;;;;;;;5074812;28;20056;-66
2022/05/01 10:38:38;;;;;;;13.75;7.25;;;;;;;;;;5073452;28;20145;-67
2022/05/01 10:41:06;;;;;;;14.98;7.40;;;;;;;;;;5075319;28;20366;-68
2022/05/01 10:43:33;;;;;;;14.85;6.90;;;;;;;;;;5074541;28;20055;-67
2022/05/01 10:46:00;;;;;;;11.68;6.72;;;;;;;;;;5074659;28;20052;-68
2022/05/01 10:48:29;;;;;;;13.23;6.88;;;;;;;;;;5073361;28;20129;-67
2022/05/01 10:50:55;;;;;;;13.23;6.57;;;;;;;;;;5074865;28;20509;-67
2022/05/01 10:53:21;;;;;;;14.68;7.15;;;;;;;;;;5073421;28;20052;-68
2022/05/01 10:55:51;;;;;;;15.00;6.97;;;;;;;;;;5073433;28;20053;-66
2022/05/01 10:58:27;;;;;;;14.07;7.18;;;;;;;;;;5073882;28;20161;-68
2022/05/01 11:00:55;;;;;;;12.75;6.10;;;;;;;;;;5074015;28;20534;-69
2022/05/01 11:03:26;;;;;;;12.25;6.65;;;;;;;;;;5073911;28;20547;-68
2022/05/01 11:05:55;;;;;;;12.70;6.70;;;;;;;;;;5074098;28;20488;-68
2022/05/01 11:08:27;;;;;;;13.75;6.18;;;;;;;;;;5074478;28;20060;-67
2022/05/01 11:10:55;;;;;;;12.38;5.63;;;;;;;;;;5073570;28;20500;-67
2022/05/01 11:13:24;;;;;;;13.32;6.38;;;;;;;;;;5073350;28;20071;-68
2022/05/01 11:15:52;;;;;;;13.25;6.45;;;;;;;;;;5073863;28;20052;-68
2022/05/01 11:18:27;;;;;;;11.70;5.72;;;;;;;;;;5073710;28;20123;-69
2022/05/01 11:20:53;;;;;;;13.77;5.50;;;;;;;;;;5074490;28;20181;-69
2022/05/01 11:23:26;;;;;;;13.85;5.90;;;;;;;;;;5073674;28;20547;-68
2022/05/01 11:26:05;;;;;;;11.98;6.35;;;;;;;;;;5074118;28;20044;-68
2022/05/01 11:28:45;;;;;;;13.43;5.60;;;;;;;;;;5074298;28;20105;-68
2022/05/01 11:31:29;;;;;;;11.10;5.95;;;;;;;;;;5072845;28;20140;-67
2022/05/01 11:34:14;;;;;;;12.45;6.50;;;;;;;;;;5073640;28;20045;-67
2022/05/01 11:37:06;;;;;;;15.00;6.35;;;;;;;;;;5072386;28;20099;-67
2022/05/01 11:39:50;;;;;;;12.23;5.65;;;;;;;;;;5070788;28;20064;-68
2022/05/01 11:42:26;;;;;;;12.23;5.75;;;;;;;;;;5073585;28;20112;-67
2022/05/01 11:44:57;;;;;;;12.15;6.13;;;;;;;;;;5073378;28;20051;-67
2022/05/01 11:47:24;;;;;;;13.55;5.72;;;;;;;;;;5073217;28;20101;-67
2022/05/01 11:49:53;;;;;;;12.30;5.55;;;;;;;;;;5073355;28;20485;-68
2022/05/01 11:52:22;;;;;;;10.25;5.32;;;;;;;;;;5072825;28;20048;-68
2022/05/01 11:54:52;;;;;;;11.73;5.15;;;;;;;;;;5073912;28;20048;-66
2022/05/01 12:02:59;;;;;;;11.38;4.88;;;;;;;;;;5072393;28;20392;-67
2022/05/01 12:05:25;;;;;;;11.90;5.93;;;;;;;;;;5073585;28;20052;-67
2022/05/01 12:07:55;;;;;;;12.40;5.90;;;;;;;;;;5072951;28;20577;-66
2022/05/01 12:10:21;;;;;;;14.02;6.80;;;;;;;;;;5073514;28;20051;-67
2022/05/01 12:12:47;;;;;;;15.95;6.47;;;;;;;;;;5073339;28;20135;-66
2022/05/01 12:15:13;;;;;;;13.45;6.30;;;;;;;;;;5072750;28;20048;-67
2022/05/01 12:17:40;;;;;;;13.07;5.97;;;;;;;;;;5072599;28;20036;-67
2022/05/01 12:20:07;;;;;;;13.52;5.50;;;;;;;;;;5071258;28;20504;-67
2022/05/01 12:22:39;;;;;;;10.73;5.20;;;;;;;;;;5054734;28;20051;-67
2022/05/01 12:25:10;;;;;;;14.45;6.20;;;;;;;;;;5073056;28;20131;-66
2022/05/01 12:27:40;;;;;;;12.18;6.03;;;;;;;;;;5072440;28;20040;-66
2022/05/01 12:30:07;;;;;;;11.68;5.88;;;;;;;;;;5071391;28;20101;-67
2022/05/01 12:32:33;;;;;;;13.27;5.85;;;;;;;;;;5072595;28;20044;-67
2022/05/01 12:35:00;;;;;;;13.27;5.80;;;;;;;;;;5054708;28;20051;-65
2022/05/01 12:37:32;;;;;;;11.63;6.25;;;;;;;;;;5071957;28;20384;-67
2022/05/01 12:40:09;;;;;;;13.48;6.50;;;;;;;;;;5072751;28;20059;-66
2022/05/01 12:45:21;;;;;;;12.93;6.40;;;;;;;;;;5072206;28;20299;-66
2022/05/01 12:47:51;;;;;;;13.13;6.43;;;;;;;;;;5072370;28;20044;-68
2022/05/01 12:50:20;;;;;;;14.48;6.60;;;;;;;;;;5071952;28;20052;-68
2022/05/01 12:52:53;;;;;;;13.85;6.25;;;;;;;;;;5071096;28;20055;-68
2022/05/01 12:55:23;;;;;;;13.73;5.93;;;;;;;;;;5072188;28;20102;-69
2022/05/01 12:57:50;;;;;;;14.18;5.80;;;;;;;;;;5071654;28;20128;-67
2022/05/01 13:00:36;;;;;;;14.63;5.82;;;;;;;;;;5072529;28;20090;-67
2022/05/01 13:03:17;;;;;;;12.18;5.75;;;;;;;;;;5071386;28;20042;-67
2022/05/01 13:05:54;;;;;;;19.63;6.78;;;;;;;;;;5070708;28;20542;-67
2022/05/01 13:08:20;;;;;;;;;;;;;;;;;;5072892;28;20055;-66
2022/05/01 13:11:05;;;;;;;10.77;4.88;;;;;;;;;;5071872;28;19920;-65
2022/05/01 13:13:41;;;;;;;13.70;5.85;;;;;;;;;;5070654;28;20091;-67
2022/05/01 13:16:07;;;;;;;12.15;5.72;;;;;;;;;;5070969;28;20055;-67
2022/05/01 13:18:33;;;;;;;11.55;5.72;;;;;;;;;;5070911;28;20395;-68
2022/05/01 13:20:59;;;;;;;13.13;5.43;;;;;;;;;;5072233;28;20137;-67
2022/05/01 13:23:25;;;;;;;12.43;5.95;;;;;;;;;;5071420;28;20518;-70
2022/05/01 13:25:52;;;;;;;12.93;5.93;;;;;;;;;;5071413;28;20059;-68
2022/05/01 13:28:18;;;;;;;12.65;5.80;;;;;;;;;;5071647;28;20041;-68
2022/05/01 13:30:44;;;;;;;10.95;5.60;;;;;;;;;;5071379;28;20083;-68
2022/05/01 13:33:10;;;;;;;11.90;5.88;;;;;;;;;;5071620;28;20090;-68
2022/05/01 13:35:36;;;;;;;11.75;5.93;;;;;;;;;;5071320;28;20045;-68
2022/05/01 13:38:02;;;;;;;11.63;5.57;;;;;;;;;;5071952;28;20051;-68
2022/05/01 13:45:58;;;;;;;13.20;6.40;;;;;;;;;;5071285;28;20048;-69
2022/05/01 13:48:24;;;;;;;;;;;;;;;;;;5071723;28;20040;-68
2022/05/01 13:50:51;;;;;;;10.95;5.53;;;;;;;;;;5071226;28;19966;-67
2022/05/01 13:53:17;;;;;;;11.65;6.03;;;;;;;;;;5071527;28;20366;-67
2022/05/01 13:55:43;;;;;;;12.93;5.82;;;;;;;;;;5071513;28;20084;-67
2022/05/01 13:58:10;;;;;;;13.70;5.65;;;;;;;;;;5069433;28;20099;-68
2022/05/01 14:00:36;;;;;;;10.75;5.50;;;;;;;;;;5069847;28;20129;-68
2022/05/01 14:03:07;;;;;;;11.02;5.25;;;;;;;;;;5071592;28;20052;-68
2022/05/01 14:05:34;;;;;;;12.50;5.78;;;;;;;;;;5072417;28;20056;-69
2022/05/01 14:08:00;;;;;;;;;;;;;;;;;;5074644;28;20052;-67
2022/05/01 14:10:26;;;;;;;12.55;6.07;;;;;;;;;;5075179;28;20364;-68
2022/05/01 14:12:53;;;;;;;11.35;5.45;;;;;;;;;;5075213;28;20047;-68
2022/05/01 14:15:19;;;;;;;;;;;;;;;;;;5075643;28;20040;-67
2022/05/01 14:17:45;;;;;;;12.15;5.90;;;;;;;;;;5074980;28;20268;-69
2022/05/01 14:20:12;;;;;;;11.82;5.55;;;;;;;;;;5075387;28;20407;-69
2022/05/01 14:22:40;;;;;;;11.55;5.85;;;;;;;;;;5074726;28;20045;-67
2022/05/01 14:25:08;;;;;;;13.65;5.70;;;;;;;;;;5075359;28;20040;-67
2022/05/01 14:27:34;;;;;;;11.77;5.85;;;;;;;;;;5075032;28;20049;-68
2022/05/01 14:30:00;;;;;;;11.35;5.70;;;;;;;;;;5074691;28;20102;-67
2022/05/01 14:32:27;;;;;;;;;;;;;;;;;;5074767;28;20074;-67
2022/05/01 14:34:53;;;;;;;12.63;5.80;;;;;;;;;;5074430;28;20349;-67
2022/05/01 14:37:26;;;;;;;12.77;5.53;;;;;;;;;;5074585;28;20128;-67
2022/05/01 14:39:56;;;;;;;13.27;5.80;;;;;;;;;;5075176;28;20052;-67
2022/05/01 14:42:24;;;;;;;12.00;5.93;;;;;;;;;;5073237;28;20102;-67
2022/05/01 14:44:52;;;;;;;12.95;5.70;;;;;;;;;;5073402;28;20408;-67
2022/05/01 14:47:28;;;;;;;12.88;6.00;;;;;;;;;;5074493;28;20098;-67
2022/05/01 14:49:57;;;;;;;12.33;6.17;;;;;;;;;;5074373;28;20044;-69
2022/05/01 14:52:26;;;;;;;12.15;5.85;;;;;;;;;;5074367;28;20076;-68
2022/05/01 14:54:54;;;;;;;11.80;5.60;;;;;;;;;;5074157;28;20049;-67
2022/05/01 14:57:20;;;;;;;13.15;6.15;;;;;;;;;;5074025;28;20044;-67
2022/05/01 15:06:28;;;;;;;12.38;5.35;;;;;;;;;;5074641;28;20048;-67
2022/05/01 15:08:27;;;;;;;13.07;5.85;;;;;;;;;;5064507;28;20040;-68
2022/05/01 15:10:54;;;;;;;13.57;6.10;;;;;;;;;;5074509;28;20079;-68
2022/05/01 15:13:20;;;;;;;12.43;6.00;;;;;;;;;;5073815;28;20048;-72
2022/05/01 15:15:53;;;;;;;12.70;5.88;;;;;;;;;;5073919;28;20044;-72
2022/05/01 15:18:21;;;;;;;10.95;5.85;;;;;;;;;;5073526;28;20497;-67
2022/05/01 15:20:50;;;;;;;12.38;5.82;;;;;;;;;;5073786;28;20071;-68
2022/05/01 15:23:32;;;;;;;11.75;5.28;;;;;;;;;;5073713;28;20044;-68